createdAt,value
2018-04-30T00:01:17.001Z,48.27
2018-04-30T00:03:43.006Z,48.25
2018-04-30T00:06:09.017Z,48.29
2018-04-30T00:08:35.024Z,48.18
2018-04-30T00:11:01.031Z,48.20
2018-04-30T00:13:27.064Z,48.16
2018-04-30T00:15:53.070Z,48.15
2018-04-30T00:18:19.050Z,48.16
2018-04-30T00:20:45.060Z,48.12
2018-04-30T00:23:11.071Z,48.07
2018-04-30T00:25:37.118Z,48.07
2018-04-30T00:28:03.091Z,48.06
2018-04-30T00:30:29.093Z,48.03
2018-04-30T00:32:55.132Z,48.02
2018-04-30T00:35:21.170Z,47.94
2018-04-30T00:37:47.138Z,47.96
2018-04-30T00:40:13.148Z,47.85
2018-04-30T00:42:39.153Z,47.82
2018-04-30T00:45:05.192Z,47.79
2018-04-30T00:47:31.170Z,47.68
2018-04-30T00:49:57.167Z,47.67
2018-04-30T00:52:23.183Z,47.62
2018-04-30T00:54:49.215Z,47.58
2018-04-30T00:57:15.206Z,47.53
2018-04-30T00:59:41.208Z,47.50
2018-04-30T01:02:07.222Z,47.48
2018-04-30T01:04:33.223Z,47.43
2018-04-30T01:06:59.239Z,47.40
2018-04-30T01:09:25.251Z,47.38
2018-04-30T01:11:51.264Z,47.36
2018-04-30T01:14:17.273Z,47.37
2018-04-30T01:16:43.283Z,47.35
2018-04-30T01:19:09.290Z,47.34
2018-04-30T01:21:35.289Z,47.28
2018-04-30T01:24:01.299Z,47.28
2018-04-30T01:26:27.313Z,47.25
2018-04-30T01:28:53.318Z,47.25
2018-04-30T01:31:19.327Z,47.22
2018-04-30T01:33:45.337Z,47.21
2018-04-30T01:36:11.334Z,47.21
2018-04-30T01:38:37.367Z,47.21
2018-04-30T01:41:03.373Z,47.16
2018-04-30T01:43:29.374Z,47.08
2018-04-30T01:45:55.409Z,47.06
2018-04-30T01:48:21.416Z,47.06
2018-04-30T01:50:47.455Z,47.00
2018-04-30T01:53:13.462Z,47.00
2018-04-30T01:55:39.470Z,46.96
2018-04-30T01:58:05.470Z,46.94
2018-04-30T02:00:31.505Z,46.91
2018-04-30T02:02:57.508Z,46.86
2018-04-30T02:05:23.521Z,46.84
2018-04-30T02:07:49.573Z,46.81
2018-04-30T02:10:15.582Z,46.76
2018-04-30T02:12:41.620Z,46.71
2018-04-30T02:15:07.590Z,46.72
2018-04-30T02:17:33.615Z,46.68
2018-04-30T02:19:59.626Z,46.67
2018-04-30T02:22:25.682Z,46.67
2018-04-30T02:24:51.686Z,46.65
2018-04-30T02:27:17.686Z,46.58
2018-04-30T02:29:43.700Z,46.58
2018-04-30T02:32:09.760Z,46.53
2018-04-30T02:34:35.737Z,46.51
2018-04-30T02:37:01.742Z,46.49
2018-04-30T02:39:27.775Z,46.45
2018-04-30T02:41:53.794Z,46.44
2018-04-30T02:44:19.865Z,46.43
2018-04-30T02:46:45.862Z,46.42
2018-04-30T02:49:11.872Z,46.38
2018-04-30T02:51:37.891Z,46.39
2018-04-30T02:54:03.942Z,46.39
2018-04-30T02:56:29.954Z,46.35
2018-04-30T02:58:55.963Z,46.31
2018-04-30T03:01:21.972Z,46.26
2018-04-30T03:03:48.012Z,46.28
2018-04-30T03:06:14.005Z,46.24
2018-04-30T03:08:40.014Z,46.18
2018-04-30T03:11:06.013Z,46.15
2018-04-30T03:13:32.022Z,46.07
2018-04-30T03:15:58.032Z,46.08
2018-04-30T03:18:24.054Z,46.06
2018-04-30T03:20:50.049Z,46.03
2018-04-30T03:23:16.064Z,45.99
2018-04-30T03:25:42.062Z,45.99
2018-04-30T03:28:08.072Z,45.95
2018-04-30T03:30:34.086Z,45.88
2018-04-30T03:33:00.091Z,45.86
2018-04-30T03:35:26.129Z,45.88
2018-04-30T03:37:52.094Z,45.85
2018-04-30T03:40:18.189Z,45.81
2018-04-30T03:42:44.199Z,45.80
2018-04-30T03:45:10.207Z,45.72
2018-04-30T03:47:36.213Z,45.71
2018-04-30T03:50:02.224Z,45.70
2018-04-30T03:52:28.225Z,45.66
2018-04-30T03:54:54.261Z,45.72
2018-04-30T03:57:20.265Z,45.74
2018-04-30T03:59:46.271Z,45.71
2018-04-30T04:02:12.302Z,45.60
2018-04-30T04:04:38.354Z,45.54
2018-04-30T04:07:04.358Z,45.54
2018-04-30T04:09:30.357Z,45.70
2018-04-30T04:11:56.365Z,45.81
2018-04-30T04:14:22.409Z,45.89
2018-04-30T04:16:48.421Z,46.03
2018-04-30T04:19:14.458Z,45.63
2018-04-30T04:21:40.504Z,45.61
2018-04-30T04:24:06.512Z,45.23
2018-04-30T04:26:32.552Z,45.30
2018-04-30T04:28:58.553Z,44.94
2018-04-30T04:31:24.594Z,44.90
2018-04-30T04:33:50.787Z,44.78
2018-04-30T04:36:16.769Z,46.18
2018-04-30T04:38:42.776Z,46.11
2018-04-30T04:41:08.782Z,46.12
2018-04-30T04:43:34.781Z,46.12
2018-04-30T04:46:00.834Z,46.18
2018-04-30T04:48:26.895Z,46.22
2018-04-30T04:50:52.906Z,46.23
2018-04-30T04:53:18.914Z,46.32
2018-04-30T04:55:44.962Z,46.45
2018-04-30T04:58:10.976Z,46.51
2018-04-30T05:00:37.013Z,46.20
2018-04-30T05:03:02.977Z,46.77
2018-04-30T05:05:28.983Z,46.64
2018-04-30T05:07:55.011Z,46.28
2018-04-30T05:10:21.023Z,45.85
2018-04-30T05:12:47.094Z,45.93
2018-04-30T05:15:13.098Z,46.34
2018-04-30T05:17:39.126Z,46.08
2018-04-30T05:20:05.140Z,46.19
2018-04-30T05:22:31.116Z,46.46
2018-04-30T05:24:57.150Z,46.27
2018-04-30T05:27:23.135Z,46.41
2018-04-30T05:29:49.170Z,46.59
2018-04-30T05:32:15.155Z,46.68
2018-04-30T05:34:41.160Z,46.79
2018-04-30T05:37:07.184Z,46.80
2018-04-30T05:39:33.200Z,46.76
2018-04-30T05:41:59.212Z,46.89
2018-04-30T05:44:25.216Z,46.34
2018-04-30T05:46:51.254Z,46.83
2018-04-30T05:49:17.253Z,46.89
2018-04-30T05:51:43.284Z,46.65
2018-04-30T05:54:09.340Z,47.07
2018-04-30T05:56:35.344Z,47.24
2018-04-30T05:59:01.354Z,46.70
2018-04-30T06:01:27.376Z,46.91
2018-04-30T06:03:53.384Z,46.78
2018-04-30T06:06:19.385Z,46.59
2018-04-30T06:08:45.398Z,46.62
2018-04-30T06:11:11.439Z,46.46
2018-04-30T06:13:37.428Z,46.34
2018-04-30T06:16:03.471Z,46.26
2018-04-30T06:18:29.478Z,46.20
2018-04-30T06:20:55.457Z,46.03
2018-04-30T06:23:21.465Z,46.02
2018-04-30T06:25:47.471Z,46.02
2018-04-30T06:28:13.510Z,46.08
2018-04-30T06:30:39.520Z,46.10
2018-04-30T06:33:05.532Z,46.12
2018-04-30T06:35:31.538Z,46.04
2018-04-30T06:37:57.551Z,45.99
2018-04-30T06:40:23.594Z,46.06
2018-04-30T06:42:49.594Z,49.08
2018-04-30T06:45:15.596Z,48.44
2018-04-30T06:47:41.608Z,48.93
2018-04-30T06:50:07.610Z,48.74
2018-04-30T06:52:33.646Z,48.25
2018-04-30T06:54:59.653Z,48.48
2018-04-30T06:57:25.663Z,48.19
2018-04-30T06:59:51.671Z,48.11
2018-04-30T07:02:17.685Z,48.13
2018-04-30T07:04:43.716Z,48.29
2018-04-30T07:07:09.740Z,48.03
2018-04-30T07:09:35.971Z,47.99
2018-04-30T07:12:01.802Z,47.92
2018-04-30T07:14:27.807Z,48.17
2018-04-30T07:16:53.817Z,48.16
2018-04-30T07:19:19.841Z,47.83
2018-04-30T07:21:45.857Z,47.91
2018-04-30T07:24:11.893Z,48.06
2018-04-30T07:26:37.874Z,47.93
2018-04-30T07:29:03.886Z,47.71
2018-04-30T07:31:29.894Z,47.78
2018-04-30T07:33:55.909Z,47.93
2018-04-30T07:36:21.954Z,47.91
2018-04-30T07:38:47.934Z,47.73
2018-04-30T07:41:13.945Z,47.83
2018-04-30T07:43:39.954Z,47.83
2018-04-30T07:46:05.952Z,47.86
2018-04-30T07:48:31.957Z,47.78
2018-04-30T07:50:57.996Z,47.82
2018-04-30T07:53:23.973Z,47.77
2018-04-30T07:55:49.995Z,47.76
2018-04-30T07:58:16.025Z,47.82
2018-04-30T08:00:42.039Z,47.78
2018-04-30T08:03:08.220Z,47.74
2018-04-30T08:05:34.202Z,47.75
2018-04-30T08:08:00.214Z,47.76
2018-04-30T08:10:26.272Z,47.80
2018-04-30T08:12:52.323Z,47.78
2018-04-30T08:15:18.360Z,47.72
2018-04-30T08:17:44.333Z,47.81
2018-04-30T08:20:10.441Z,47.92
2018-04-30T08:22:36.480Z,47.78
2018-04-30T08:25:02.455Z,47.74
2018-04-30T08:27:28.454Z,47.73
2018-04-30T08:29:54.500Z,47.71
2018-04-30T08:32:20.560Z,47.70
2018-04-30T08:34:46.590Z,47.51
2018-04-30T08:37:12.641Z,47.52
2018-04-30T08:39:38.692Z,47.43
2018-04-30T08:42:04.732Z,47.36
2018-04-30T08:44:30.742Z,47.23
2018-04-30T08:46:56.752Z,47.21
2018-04-30T08:49:22.809Z,47.13
2018-04-30T08:51:48.791Z,47.08
2018-04-30T08:54:14.828Z,47.06
2018-04-30T08:56:40.850Z,47.01
2018-04-30T08:59:06.894Z,46.99
2018-04-30T09:01:32.939Z,46.96
2018-04-30T09:03:58.919Z,46.97
2018-04-30T09:06:24.921Z,46.97
2018-04-30T09:08:50.936Z,46.98
2018-04-30T09:11:16.943Z,46.96
2018-04-30T09:13:42.950Z,46.93
2018-04-30T09:16:08.965Z,46.92
2018-04-30T09:18:35.004Z,46.93
2018-04-30T09:21:01.031Z,46.89
2018-04-30T09:23:27.010Z,46.88
2018-04-30T09:25:53.020Z,46.84
2018-04-30T09:28:19.024Z,46.80
2018-04-30T09:30:45.044Z,46.82
2018-04-30T09:33:11.078Z,46.80
2018-04-30T09:35:37.050Z,46.76
2018-04-30T09:38:03.053Z,46.66
2018-04-30T09:40:29.094Z,46.65
2018-04-30T09:42:55.076Z,46.63
2018-04-30T09:45:21.123Z,46.55
2018-04-30T09:47:47.164Z,46.53
2018-04-30T09:50:13.139Z,46.51
2018-04-30T09:52:39.148Z,46.50
2018-04-30T09:55:05.153Z,46.57
2018-04-30T09:57:31.160Z,46.52
2018-04-30T09:59:57.186Z,46.50
2018-04-30T10:02:23.201Z,46.55
2018-04-30T10:04:49.258Z,46.57
2018-04-30T10:07:15.270Z,46.61
2018-04-30T10:09:41.240Z,46.56
2018-04-30T10:12:07.254Z,46.56
2018-04-30T10:14:33.256Z,46.55
2018-04-30T10:16:59.278Z,46.52
2018-04-30T10:19:25.280Z,46.52
2018-04-30T10:21:51.292Z,46.56
2018-04-30T10:24:17.318Z,46.53
2018-04-30T10:26:43.317Z,46.53
2018-04-30T10:29:09.398Z,46.54
2018-04-30T10:31:35.479Z,46.51
2018-04-30T10:34:01.393Z,46.53
2018-04-30T10:36:27.399Z,46.52
2018-04-30T10:38:53.440Z,46.53
2018-04-30T10:41:19.445Z,46.50
2018-04-30T10:43:45.450Z,46.51
2018-04-30T10:46:11.455Z,46.47
2018-04-30T10:48:37.461Z,46.45
2018-04-30T10:51:03.487Z,46.49
2018-04-30T10:53:29.494Z,46.50
2018-04-30T10:55:55.510Z,46.50
2018-04-30T10:58:21.515Z,46.52
2018-04-30T11:00:47.530Z,46.63
2018-04-30T11:03:13.536Z,46.68
2018-04-30T11:05:39.589Z,46.84
2018-04-30T11:08:05.592Z,46.95
2018-04-30T11:10:31.666Z,46.88
2018-04-30T11:12:57.676Z,47.07
2018-04-30T11:15:23.692Z,47.04
2018-04-30T11:17:49.730Z,46.92
2018-04-30T11:20:15.701Z,47.03
2018-04-30T11:22:41.893Z,47.04
2018-04-30T11:25:07.857Z,46.92
2018-04-30T11:27:33.985Z,47.00
2018-04-30T11:32:54.314Z,47.05
2018-04-30T11:35:20.319Z,47.24
2018-04-30T11:37:46.324Z,47.16
2018-04-30T11:40:12.301Z,47.07
2018-04-30T11:42:38.308Z,47.19
2018-04-30T11:45:04.354Z,47.09
2018-04-30T11:47:30.325Z,47.09
2018-04-30T11:49:56.306Z,47.28
2018-04-30T11:52:22.304Z,47.32
2018-04-30T11:54:48.325Z,47.15
2018-04-30T11:57:14.309Z,47.12
2018-04-30T11:59:40.256Z,47.22
2018-04-30T12:02:06.366Z,47.13
2018-04-30T12:04:32.347Z,47.04
2018-04-30T12:06:58.330Z,47.06
2018-04-30T12:09:24.326Z,47.05
2018-04-30T12:11:50.465Z,47.08
2018-04-30T12:14:16.458Z,47.17
2018-04-30T12:16:42.469Z,47.08
2018-04-30T12:19:08.461Z,47.02
2018-04-30T12:21:34.407Z,46.99
2018-04-30T12:24:00.388Z,46.98
2018-04-30T12:26:26.418Z,47.03
2018-04-30T12:28:52.446Z,46.96
2018-04-30T12:31:18.426Z,46.96
2018-04-30T12:33:44.410Z,46.92
2018-04-30T12:36:10.446Z,46.90
2018-04-30T12:38:36.370Z,46.84
2018-04-30T12:41:02.338Z,46.83
2018-04-30T12:43:28.350Z,46.80
2018-04-30T12:45:54.323Z,46.79
2018-04-30T12:48:20.311Z,46.78
2018-04-30T12:50:46.355Z,46.78
2018-04-30T12:53:12.270Z,46.77
2018-04-30T12:55:38.327Z,46.80
2018-04-30T12:58:04.343Z,46.86
2018-04-30T13:00:30.329Z,46.80
2018-04-30T13:02:56.273Z,46.80
2018-04-30T13:05:22.268Z,46.85
2018-04-30T13:07:48.285Z,47.00
2018-04-30T13:10:14.264Z,47.05
2018-04-30T13:12:40.248Z,46.93
2018-04-30T13:15:06.252Z,46.87
2018-04-30T13:17:32.260Z,46.82
2018-04-30T13:19:58.283Z,46.76
2018-04-30T13:22:24.242Z,46.71
2018-04-30T13:24:50.219Z,46.67
2018-04-30T13:27:16.192Z,46.67
2018-04-30T13:29:42.183Z,46.65
2018-04-30T13:32:08.157Z,46.56
2018-04-30T13:34:34.175Z,46.56
2018-04-30T13:37:00.186Z,46.62
2018-04-30T13:39:26.142Z,46.59
2018-04-30T13:41:52.161Z,46.60
2018-04-30T13:44:18.118Z,46.65
2018-04-30T13:46:44.108Z,46.90
2018-04-30T13:49:10.085Z,46.84
2018-04-30T13:51:36.092Z,46.84
2018-04-30T13:54:02.105Z,46.86
2018-04-30T13:56:28.084Z,46.93
2018-04-30T13:58:54.118Z,46.90
2018-04-30T14:01:20.115Z,46.86
2018-04-30T14:03:46.049Z,46.94
2018-04-30T14:06:12.026Z,46.96
2018-04-30T14:08:38.034Z,47.01
2018-04-30T14:11:03.991Z,47.00
2018-04-30T14:13:29.961Z,46.82
2018-04-30T14:15:56.010Z,46.90
2018-04-30T14:18:21.916Z,47.05
2018-04-30T14:20:47.906Z,46.91
2018-04-30T14:23:13.911Z,47.04
2018-04-30T14:25:39.893Z,46.98
2018-04-30T14:28:05.873Z,46.95
2018-04-30T14:30:31.855Z,47.12
2018-04-30T14:32:57.834Z,47.04
2018-04-30T14:35:23.932Z,47.08
2018-04-30T14:37:49.884Z,47.19
2018-04-30T14:40:15.898Z,47.08
2018-04-30T14:42:41.844Z,46.94
2018-04-30T14:45:07.838Z,47.03
2018-04-30T14:47:33.850Z,47.10
2018-04-30T14:49:59.796Z,47.16
2018-04-30T14:52:25.806Z,47.11
2018-04-30T14:54:51.760Z,47.08
2018-04-30T14:57:17.772Z,47.02
2018-04-30T14:59:43.777Z,47.36
2018-04-30T15:02:09.788Z,47.49
2018-04-30T15:04:35.753Z,47.54
2018-04-30T15:07:01.769Z,47.61
2018-04-30T15:09:27.729Z,47.52
2018-04-30T15:11:53.706Z,47.61
2018-04-30T15:14:19.686Z,47.58
2018-04-30T15:16:45.664Z,47.43
2018-04-30T15:19:11.661Z,47.49
2018-04-30T15:21:37.642Z,47.57
2018-04-30T15:24:03.649Z,47.77
2018-04-30T15:26:29.638Z,47.59
2018-04-30T15:28:55.601Z,47.65
2018-04-30T15:31:21.592Z,47.56
2018-04-30T15:33:47.569Z,47.49
2018-04-30T15:36:13.622Z,47.51
2018-04-30T15:38:39.567Z,47.49
2018-04-30T15:41:05.556Z,47.54
2018-04-30T15:43:31.598Z,47.48
2018-04-30T15:45:57.571Z,47.39
2018-04-30T15:48:23.523Z,47.45
2018-04-30T15:50:49.570Z,47.58
2018-04-30T15:53:15.550Z,47.51
2018-04-30T15:55:41.532Z,47.53
2018-04-30T15:58:07.508Z,47.97
2018-04-30T16:00:33.482Z,48.01
2018-04-30T16:02:59.466Z,47.85
2018-04-30T16:05:25.466Z,47.84
2018-04-30T16:07:51.486Z,47.84
2018-04-30T16:10:17.493Z,47.79
2018-04-30T16:12:43.486Z,47.97
2018-04-30T16:15:09.609Z,48.02
2018-04-30T16:17:35.585Z,48.03
2018-04-30T16:20:01.606Z,47.90
2018-04-30T16:22:27.540Z,48.20
2018-04-30T16:24:53.708Z,47.80
2018-04-30T16:27:19.786Z,47.98
2018-04-30T16:29:45.884Z,48.12
2018-04-30T16:32:11.917Z,47.89
2018-04-30T16:34:37.925Z,47.85
2018-04-30T16:37:03.937Z,47.69
2018-04-30T16:39:29.942Z,47.95
2018-04-30T16:41:55.922Z,48.21
2018-04-30T16:44:21.914Z,48.29
2018-04-30T16:46:47.857Z,48.22
2018-04-30T16:49:13.856Z,48.25
2018-04-30T16:51:39.840Z,48.61
2018-04-30T16:54:05.871Z,48.71
2018-04-30T16:56:31.865Z,48.13
2018-04-30T16:58:57.925Z,48.50
2018-04-30T17:01:23.920Z,48.51
2018-04-30T17:03:49.958Z,48.69
2018-04-30T17:06:15.934Z,48.52
2018-04-30T17:08:41.909Z,48.43
2018-04-30T17:11:07.865Z,48.69
2018-04-30T17:13:33.863Z,48.52
2018-04-30T17:15:59.949Z,48.32
2018-04-30T17:18:26.172Z,48.58
2018-04-30T17:20:52.193Z,48.72
2018-04-30T17:23:18.202Z,48.69
2018-04-30T17:25:44.211Z,48.15
2018-04-30T17:28:10.197Z,48.43
2018-04-30T17:30:36.215Z,48.56
2018-04-30T17:33:02.165Z,48.23
2018-04-30T17:35:28.143Z,48.31
2018-04-30T17:37:54.129Z,48.09
2018-04-30T17:40:20.141Z,47.99
2018-04-30T17:42:46.152Z,48.18
2018-04-30T17:45:12.101Z,48.03
2018-04-30T17:47:38.075Z,48.11
2018-04-30T17:50:04.184Z,48.00
2018-04-30T17:52:30.162Z,48.04
2018-04-30T17:54:56.141Z,48.11
2018-04-30T17:57:22.129Z,48.85
2018-04-30T17:59:48.100Z,48.66
2018-04-30T18:02:14.111Z,48.68
2018-04-30T18:04:40.132Z,48.62
2018-04-30T18:07:06.139Z,48.68
2018-04-30T18:09:32.073Z,48.45
2018-04-30T18:11:58.083Z,48.54
2018-04-30T18:14:24.037Z,48.83
2018-04-30T18:16:50.030Z,48.98
2018-04-30T18:19:16.087Z,48.80
2018-04-30T18:21:42.106Z,48.59
2018-04-30T18:24:08.108Z,48.95
2018-04-30T18:26:34.169Z,48.83
2018-04-30T18:29:00.069Z,48.77
2018-04-30T18:31:26.058Z,48.79
2018-04-30T18:33:52.078Z,49.51
2018-04-30T18:36:18.032Z,50.64
2018-04-30T18:38:44.093Z,50.25
2018-04-30T18:41:10.009Z,49.83
2018-04-30T18:43:35.994Z,50.02
2018-04-30T18:46:01.977Z,50.38
2018-04-30T18:48:28.035Z,51.36
2018-04-30T18:50:54.057Z,51.83
2018-04-30T18:53:20.004Z,51.65
2018-04-30T18:55:45.978Z,51.99
2018-04-30T18:58:11.961Z,51.21
2018-04-30T19:00:37.971Z,51.62
2018-04-30T19:03:03.944Z,51.45
2018-04-30T19:05:29.926Z,52.17
2018-04-30T19:07:55.957Z,51.84
2018-04-30T19:10:21.884Z,52.11
2018-04-30T19:12:47.904Z,52.32
2018-04-30T19:15:13.887Z,50.95
2018-04-30T19:17:39.864Z,51.93
2018-04-30T19:20:05.887Z,51.98
2018-04-30T19:22:31.869Z,52.15
2018-04-30T19:24:57.819Z,51.67
2018-04-30T19:27:23.829Z,51.75
2018-04-30T19:29:49.798Z,51.88
2018-04-30T19:32:15.817Z,51.64
2018-04-30T19:34:41.814Z,51.73
2018-04-30T19:37:07.874Z,51.50
2018-04-30T19:39:34.316Z,51.05
2018-04-30T19:42:00.348Z,51.27
2018-04-30T19:44:26.290Z,51.07
2018-04-30T19:46:52.268Z,51.61
2018-04-30T19:49:18.251Z,51.63
2018-04-30T19:51:44.226Z,51.59
2018-04-30T19:54:10.207Z,51.43
2018-04-30T19:56:36.261Z,51.44
2018-04-30T19:59:02.213Z,51.25
2018-04-30T20:01:28.193Z,51.24
2018-04-30T20:03:54.181Z,51.09
2018-04-30T20:06:20.164Z,51.48
2018-04-30T20:08:46.182Z,51.38
2018-04-30T20:11:12.126Z,51.57
2018-04-30T20:13:38.156Z,51.45
2018-04-30T20:16:04.135Z,51.24
2018-04-30T20:18:30.120Z,51.79
2018-04-30T20:20:56.129Z,51.72
2018-04-30T20:23:22.131Z,51.58
2018-04-30T20:25:48.155Z,51.68
2018-04-30T20:28:14.130Z,51.47
2018-04-30T20:30:40.112Z,51.34
2018-04-30T20:33:06.093Z,51.70
2018-04-30T20:35:32.079Z,51.24
2018-04-30T20:37:58.135Z,51.46
2018-04-30T20:40:24.036Z,51.41
2018-04-30T20:42:50.058Z,51.48
2018-04-30T20:45:16.033Z,51.54
2018-04-30T20:47:42.018Z,51.24
2018-04-30T20:50:08.056Z,51.25
2018-04-30T20:52:34.062Z,51.47
2018-04-30T20:55:00.005Z,50.92
2018-04-30T20:57:25.982Z,50.57
2018-04-30T20:59:51.990Z,50.52
2018-04-30T21:02:17.930Z,50.38
2018-04-30T21:04:43.907Z,50.63
2018-04-30T21:07:09.957Z,50.42
2018-04-30T21:09:35.901Z,50.21
2018-04-30T21:12:01.902Z,50.15
2018-04-30T21:14:27.888Z,50.23
2018-04-30T21:16:53.871Z,50.06
2018-04-30T21:19:19.878Z,50.08
2018-04-30T21:21:45.854Z,50.01
2018-04-30T21:24:11.815Z,50.03
2018-04-30T21:26:37.832Z,50.09
2018-04-30T21:29:03.816Z,49.88
2018-04-30T21:31:29.815Z,49.78
2018-04-30T21:33:55.839Z,49.76
2018-04-30T21:36:21.853Z,49.73
2018-04-30T21:38:47.843Z,49.64
2018-04-30T21:41:13.810Z,49.63
2018-04-30T21:43:39.886Z,49.60
2018-04-30T21:46:05.902Z,49.57
2018-04-30T21:48:31.848Z,49.43
2018-04-30T21:50:58.001Z,49.37
2018-04-30T21:53:23.978Z,49.41
2018-04-30T21:55:50.098Z,49.36
2018-04-30T21:58:16.255Z,49.28
2018-04-30T22:00:42.234Z,49.31
2018-04-30T22:03:08.271Z,49.23
2018-04-30T22:05:34.254Z,49.25
2018-04-30T22:08:00.250Z,49.19
2018-04-30T22:10:26.232Z,49.19
2018-04-30T22:12:52.210Z,49.09
2018-04-30T22:15:18.187Z,49.14
2018-04-30T22:17:44.452Z,49.05
2018-04-30T22:20:10.408Z,48.97
2018-04-30T22:22:36.411Z,48.95
2018-04-30T22:25:02.437Z,48.95
2018-04-30T22:27:28.413Z,48.86
2018-04-30T22:29:54.367Z,48.92
2018-04-30T22:32:20.390Z,48.83
2018-04-30T22:34:46.378Z,48.80
2018-04-30T22:37:12.377Z,48.76
2018-04-30T22:39:38.358Z,48.80
2018-04-30T22:42:04.336Z,48.74
2018-04-30T22:44:30.318Z,48.75
2018-04-30T22:46:56.293Z,48.75
2018-04-30T22:49:22.316Z,48.64
2018-04-30T22:51:48.296Z,48.68
2018-04-30T22:54:14.253Z,48.61
2018-04-30T22:56:40.235Z,48.67
2018-04-30T22:59:06.249Z,48.56
2018-04-30T23:01:32.220Z,48.53
2018-04-30T23:03:58.205Z,48.49
2018-04-30T23:06:24.193Z,48.47
2018-04-30T23:08:50.130Z,48.49
2018-04-30T23:11:16.147Z,48.54
2018-04-30T23:13:42.086Z,48.53
2018-04-30T23:16:08.068Z,48.43
2018-04-30T23:18:34.047Z,48.37
2018-04-30T23:21:00.085Z,48.29
2018-04-30T23:23:26.100Z,48.34
2018-04-30T23:25:52.051Z,48.35
2018-04-30T23:28:18.054Z,48.34
2018-04-30T23:30:44.004Z,48.25
2018-04-30T23:33:10.011Z,48.26
2018-04-30T23:35:35.984Z,48.22
2018-04-30T23:38:01.991Z,48.24
2018-04-30T23:40:27.958Z,48.30
2018-04-30T23:42:53.970Z,48.19
2018-04-30T23:45:19.949Z,48.18
2018-04-30T23:47:46.127Z,48.14
2018-04-30T23:50:12.101Z,48.15
2018-04-30T23:52:38.110Z,48.16
2018-04-30T23:55:04.061Z,48.18
2018-04-30T23:57:30.197Z,48.24
2018-04-30T23:59:56.183Z,48.12
